Terminal Aerodrome Forecast
Issued by NWS

Home | Current Version | Previous Version | Graphics & Text | Print | Product List | Glossary On
Versions: 1 2 3 4 5 6 7 8 9 10 11 12 13 14 15 16 17
000
FTUS43 KICT 212331
TAFCNU
TAF
KCNU 212331Z 2200/2224 18012KT P6SM SKC
     FM220100 17007KT P6SM FEW050 FEW250
     FM221500 17012KT P6SM FEW200=

USA.gov is the U.S. government's official web portal to all federal, state and local government web resources and services.